sensor_id;sensor_type;location;lat;lon;timestamp;pressure;altitude;pressure_sealevel;temperature;humidity
69955;BME280;57279;55.912;37.490;2023-04-30T00:01:57;99680.47;;;3.68;72.34
69955;BME280;57279;55.912;37.490;2023-04-30T00:04:22;99694.22;;;3.65;72.34
69955;BME280;57279;55.912;37.490;2023-04-30T00:06:48;99687.66;;;3.61;72.36
69955;BME280;57279;55.912;37.490;2023-04-30T00:09:13;99687.66;;;3.61;72.38
69955;BME280;57279;55.912;37.490;2023-04-30T00:11:39;99691.16;;;3.55;72.70
69955;BME280;57279;55.912;37.490;2023-04-30T00:14:05;99689.31;;;3.56;72.57
69955;BME280;57279;55.912;37.490;2023-04-30T00:16:30;99696.50;;;3.55;72.56
69955;BME280;57279;55.912;37.490;2023-04-30T00:18:56;99702.66;;;3.56;72.52
69955;BME280;57279;55.912;37.490;2023-04-30T00:21:21;99700.41;;;3.52;72.73
69955;BME280;57279;55.912;37.490;2023-04-30T00:23:47;99700.41;;;3.52;72.69
69955;BME280;57279;55.912;37.490;2023-04-30T00:26:13;99707.81;;;3.50;72.53
69955;BME280;57279;55.912;37.490;2023-04-30T00:28:39;99709.03;;;3.48;72.62
69955;BME280;57279;55.912;37.490;2023-04-30T00:31:05;99705.53;;;3.47;72.16
69955;BME280;57279;55.912;37.490;2023-04-30T00:33:31;99700.41;;;3.46;72.08
69955;BME280;57279;55.912;37.490;2023-04-30T00:35:57;99708.84;;;3.43;72.70
69955;BME280;57279;55.912;37.490;2023-04-30T00:38:22;99704.50;;;3.42;72.43
69955;BME280;57279;55.912;37.490;2023-04-30T00:40:48;99707.56;;;3.39;72.30
69955;BME280;57279;55.912;37.490;2023-04-30T00:43:14;99711.69;;;3.35;72.47
69955;BME280;57279;55.912;37.490;2023-04-30T00:45:39;99720.94;;;3.32;72.77
69955;BME280;57279;55.912;37.490;2023-04-30T00:48:06;99721.53;;;3.27;72.69
69955;BME280;57279;55.912;37.490;2023-04-30T00:50:34;99716.59;;;3.24;72.61
69955;BME280;57279;55.912;37.490;2023-04-30T00:53:00;99714.75;;;3.25;73.14
69955;BME280;57279;55.912;37.490;2023-04-30T00:55:26;99714.13;;;3.23;73.16
69955;BME280;57279;55.912;37.490;2023-04-30T00:57:53;99710.22;;;3.19;72.81
69955;BME280;57279;55.912;37.490;2023-04-30T01:00:18;99715.78;;;3.10;73.13
69955;BME280;57279;55.912;37.490;2023-04-30T01:02:44;99708.13;;;3.01;73.41
69955;BME280;57279;55.912;37.490;2023-04-30T01:05:10;99699.94;;;3.02;73.32
69955;BME280;57279;55.912;37.490;2023-04-30T01:07:36;99699.94;;;3.02;74.21
69955;BME280;57279;55.912;37.490;2023-04-30T01:10:10;99702.41;;;3.04;73.51
69955;BME280;57279;55.912;37.490;2023-04-30T01:12:43;99710.59;;;3.02;73.60
69955;BME280;57279;55.912;37.490;2023-04-30T01:18:03;99707.94;;;3.02;73.44
69955;BME280;57279;55.912;37.490;2023-04-30T01:20:31;99704.25;;;3.03;73.04
69955;BME280;57279;55.912;37.490;2023-04-30T01:28:08;99718.19;;;2.92;73.16
69955;BME280;57279;55.912;37.490;2023-04-30T01:30:35;99717.56;;;2.90;73.04
69955;BME280;57279;55.912;37.490;2023-04-30T01:33:01;99716.31;;;2.86;72.82
69955;BME280;57279;55.912;37.490;2023-04-30T01:40:57;99713.44;;;2.81;73.85
69955;BME280;57279;55.912;37.490;2023-04-30T01:43:48;99715.28;;;2.80;73.71
69955;BME280;57279;55.912;37.490;2023-04-30T01:46:27;99715.00;;;2.68;74.24
69955;BME280;57279;55.912;37.490;2023-04-30T01:52:01;99713.19;;;2.76;74.09
69955;BME280;57279;55.912;37.490;2023-04-30T01:54:40;99714.44;;;2.80;73.81
69955;BME280;57279;55.912;37.490;2023-04-30T01:57:17;99720.63;;;2.80;73.43
69955;BME280;57279;55.912;37.490;2023-04-30T01:59:45;99713.63;;;2.79;73.62
69955;BME280;57279;55.912;37.490;2023-04-30T02:02:11;99716.28;;;2.79;73.89
69955;BME280;57279;55.912;37.490;2023-04-30T02:04:36;99700.28;;;2.79;73.67
69955;BME280;57279;55.912;37.490;2023-04-30T02:07:02;99712.81;;;2.79;73.73
69955;BME280;57279;55.912;37.490;2023-04-30T02:09:28;99707.28;;;2.80;73.58
69955;BME280;57279;55.912;37.490;2023-04-30T02:11:54;99707.66;;;2.77;73.66
69955;BME280;57279;55.912;37.490;2023-04-30T02:14:19;99705.00;;;2.77;73.67
69955;BME280;57279;55.912;37.490;2023-04-30T02:17:05;99710.94;;;2.72;73.82
69955;BME280;57279;55.912;37.490;2023-04-30T02:19:31;99704.78;;;2.72;73.73
69955;BME280;57279;55.912;37.490;2023-04-30T02:21:57;99707.25;;;2.73;73.63
69955;BME280;57279;55.912;37.490;2023-04-30T02:24:23;99700.91;;;2.74;73.76
69955;BME280;57279;55.912;37.490;2023-04-30T02:26:49;99697.38;;;2.74;73.35
69955;BME280;57279;55.912;37.490;2023-04-30T02:29:14;99692.47;;;2.71;73.73
69955;BME280;57279;55.912;37.490;2023-04-30T02:31:41;99692.28;;;2.72;73.62
69955;BME280;57279;55.912;37.490;2023-04-30T02:34:09;99698.63;;;2.71;73.84
69955;BME280;57279;55.912;37.490;2023-04-30T02:36:35;99689.63;;;2.72;73.98
69955;BME280;57279;55.912;37.490;2023-04-30T02:39:01;99695.56;;;2.74;73.96
69955;BME280;57279;55.912;37.490;2023-04-30T02:41:26;99691.47;;;2.79;74.42
69955;BME280;57279;55.912;37.490;2023-04-30T02:43:52;99693.34;;;2.85;74.27
69955;BME280;57279;55.912;37.490;2023-04-30T02:46:18;99683.09;;;2.88;74.12
69955;BME280;57279;55.912;37.490;2023-04-30T02:48:44;99682.28;;;2.94;74.60
69955;BME280;57279;55.912;37.490;2023-04-30T02:51:09;99684.94;;;2.94;74.26
69955;BME280;57279;55.912;37.490;2023-04-30T02:53:35;99680.22;;;2.97;74.03
69955;BME280;57279;55.912;37.490;2023-04-30T02:56:01;99683.94;;;2.96;74.01
69955;BME280;57279;55.912;37.490;2023-04-30T02:58:26;99684.53;;;2.98;74.41
69955;BME280;57279;55.912;37.490;2023-04-30T03:00:52;99683.50;;;2.99;74.56
69955;BME280;57279;55.912;37.490;2023-04-30T03:03:18;99688.44;;;3.02;74.58
69955;BME280;57279;55.912;37.490;2023-04-30T03:05:43;99678.81;;;3.07;74.55
69955;BME280;57279;55.912;37.490;2023-04-30T03:08:09;99672.03;;;3.05;74.94
69955;BME280;57279;55.912;37.490;2023-04-30T03:10:35;99685.19;;;3.13;74.87
69955;BME280;57279;55.912;37.490;2023-04-30T03:13:00;99675.53;;;3.19;75.23
69955;BME280;57279;55.912;37.490;2023-04-30T03:15:26;99668.78;;;3.23;75.23
69955;BME280;57279;55.912;37.490;2023-04-30T03:17:52;99669.81;;;3.28;75.42
69955;BME280;57279;55.912;37.490;2023-04-30T03:20:17;99666.31;;;3.35;75.82
69955;BME280;57279;55.912;37.490;2023-04-30T03:22:43;99674.13;;;3.43;75.77
69955;BME280;57279;55.912;37.490;2023-04-30T03:25:09;99662.59;;;3.42;76.51
69955;BME280;57279;55.912;37.490;2023-04-30T03:27:35;99661.59;;;3.50;76.60
69955;BME280;57279;55.912;37.490;2023-04-30T03:30:01;99663.22;;;3.58;76.72
69955;BME280;57279;55.912;37.490;2023-04-30T03:32:29;99661.41;;;3.58;77.42
69955;BME280;57279;55.912;37.490;2023-04-30T03:34:54;99662.41;;;3.70;77.46
69955;BME280;57279;55.912;37.490;2023-04-30T03:37:20;99655.59;;;3.81;76.84
69955;BME280;57279;55.912;37.490;2023-04-30T03:39:46;99654.78;;;3.87;77.33
69955;BME280;57279;55.912;37.490;2023-04-30T03:42:11;99660.94;;;3.95;77.06
69955;BME280;57279;55.912;37.490;2023-04-30T03:44:37;99655.13;;;4.04;77.12
69955;BME280;57279;55.912;37.490;2023-04-30T03:47:03;99648.13;;;4.10;77.37
69955;BME280;57279;55.912;37.490;2023-04-30T03:49:29;99645.44;;;4.17;77.10
69955;BME280;57279;55.912;37.490;2023-04-30T03:51:55;99639.47;;;4.21;77.56
69955;BME280;57279;55.912;37.490;2023-04-30T03:54:21;99642.72;;;4.30;77.67
69955;BME280;57279;55.912;37.490;2023-04-30T03:56:46;99634.22;;;4.40;77.51
69955;BME280;57279;55.912;37.490;2023-04-30T03:59:12;99632.81;;;4.44;77.68
69955;BME280;57279;55.912;37.490;2023-04-30T04:01:38;99637.69;;;4.54;77.84
69955;BME280;57279;55.912;37.490;2023-04-30T04:04:04;99632.47;;;4.65;77.47
69955;BME280;57279;55.912;37.490;2023-04-30T04:06:31;99631.78;;;4.77;77.20
69955;BME280;57279;55.912;37.490;2023-04-30T04:08:57;99635.41;;;4.89;76.99
69955;BME280;57279;55.912;37.490;2023-04-30T04:11:22;99628.56;;;5.00;76.17
69955;BME280;57279;55.912;37.490;2023-04-30T04:13:48;99628.88;;;5.10;75.85
69955;BME280;57279;55.912;37.490;2023-04-30T04:16:13;99630.03;;;5.21;75.26
69955;BME280;57279;55.912;37.490;2023-04-30T04:18:39;99636.78;;;5.30;75.15
69955;BME280;57279;55.912;37.490;2023-04-30T04:21:05;99635.47;;;5.39;74.06
69955;BME280;57279;55.912;37.490;2023-04-30T04:23:31;99632.94;;;5.44;73.65
69955;BME280;57279;55.912;37.490;2023-04-30T04:25:56;99625.22;;;5.55;73.38
69955;BME280;57279;55.912;37.490;2023-04-30T04:28:23;99626.59;;;5.64;73.26
69955;BME280;57279;55.912;37.490;2023-04-30T04:30:48;99624.00;;;5.76;72.83
69955;BME280;57279;55.912;37.490;2023-04-30T04:33:14;99622.88;;;5.83;72.11
69955;BME280;57279;55.912;37.490;2023-04-30T04:35:41;99623.06;;;5.88;71.73
69955;BME280;57279;55.912;37.490;2023-04-30T04:38:06;99624.78;;;6.01;71.90
69955;BME280;57279;55.912;37.490;2023-04-30T04:40:32;99621.81;;;6.10;71.73
69955;BME280;57279;55.912;37.490;2023-04-30T04:43:00;99618.44;;;6.14;70.59
69955;BME280;57279;55.912;37.490;2023-04-30T04:45:25;99615.78;;;6.14;69.56
69955;BME280;57279;55.912;37.490;2023-04-30T04:47:51;99623.28;;;6.24;69.16
69955;BME280;57279;55.912;37.490;2023-04-30T04:50:17;99619.25;;;6.33;68.79
69955;BME280;57279;55.912;37.490;2023-04-30T04:52:43;99615.81;;;6.44;69.09
69955;BME280;57279;55.912;37.490;2023-04-30T04:55:08;99617.81;;;6.49;68.62
69955;BME280;57279;55.912;37.490;2023-04-30T04:57:36;99619.22;;;6.52;67.64
69955;BME280;57279;55.912;37.490;2023-04-30T05:00:02;99618.47;;;6.63;67.29
69955;BME280;57279;55.912;37.490;2023-04-30T05:02:30;99613.94;;;6.75;67.69
69955;BME280;57279;55.912;37.490;2023-04-30T05:04:56;99615.59;;;6.76;66.38
69955;BME280;57279;55.912;37.490;2023-04-30T05:07:21;99619.59;;;6.85;66.94
69955;BME280;57279;55.912;37.490;2023-04-30T05:09:47;99623.47;;;6.90;65.99
69955;BME280;57279;55.912;37.490;2023-04-30T05:12:13;99617.16;;;6.96;66.38
69955;BME280;57279;55.912;37.490;2023-04-30T05:14:39;99615.31;;;7.08;65.92
69955;BME280;57279;55.912;37.490;2023-04-30T05:17:05;99616.38;;;7.19;65.69
69955;BME280;57279;55.912;37.490;2023-04-30T05:19:31;99621.19;;;7.29;64.86
69955;BME280;57279;55.912;37.490;2023-04-30T05:21:57;99611.50;;;7.39;64.81
69955;BME280;57279;55.912;37.490;2023-04-30T05:24:27;99614.91;;;7.47;64.34
69955;BME280;57279;55.912;37.490;2023-04-30T05:26:52;99616.31;;;7.61;64.61
69955;BME280;57279;55.912;37.490;2023-04-30T05:29:18;99607.91;;;7.69;64.01
69955;BME280;57279;55.912;37.490;2023-04-30T05:31:43;99614.66;;;7.72;64.19
69955;BME280;57279;55.912;37.490;2023-04-30T05:34:09;99608.22;;;7.73;64.05
69955;BME280;57279;55.912;37.490;2023-04-30T05:36:34;99607.75;;;7.88;63.99
69955;BME280;57279;55.912;37.490;2023-04-30T05:39:00;99609.16;;;8.02;63.23
69955;BME280;57279;55.912;37.490;2023-04-30T05:41:25;99616.97;;;8.03;62.32
69955;BME280;57279;55.912;37.490;2023-04-30T05:43:51;99618.00;;;8.14;62.46
69955;BME280;57279;55.912;37.490;2023-04-30T05:46:18;99612.50;;;8.21;61.96
69955;BME280;57279;55.912;37.490;2023-04-30T05:48:44;99612.00;;;8.24;61.51
69955;BME280;57279;55.912;37.490;2023-04-30T05:51:09;99613.25;;;8.33;61.25
69955;BME280;57279;55.912;37.490;2023-04-30T05:53:35;99610.25;;;8.41;60.99
69955;BME280;57279;55.912;37.490;2023-04-30T05:56:01;99606.94;;;8.51;61.02
69955;BME280;57279;55.912;37.490;2023-04-30T05:58:27;99606.53;;;8.59;61.08
69955;BME280;57279;55.912;37.490;2023-04-30T06:00:53;99613.41;;;8.67;60.30
69955;BME280;57279;55.912;37.490;2023-04-30T06:03:18;99613.13;;;8.80;60.73
69955;BME280;57279;55.912;37.490;2023-04-30T06:05:45;99613.22;;;8.86;59.57
69955;BME280;57279;55.912;37.490;2023-04-30T06:08:11;99611.09;;;8.88;59.68
69955;BME280;57279;55.912;37.490;2023-04-30T06:10:37;99604.97;;;8.92;59.68
69955;BME280;57279;55.912;37.490;2023-04-30T06:13:03;99611.50;;;8.96;58.91
69955;BME280;57279;55.912;37.490;2023-04-30T06:15:29;99612.50;;;9.07;58.17
69955;BME280;57279;55.912;37.490;2023-04-30T06:17:55;99614.78;;;9.15;57.88
69955;BME280;57279;55.912;37.490;2023-04-30T06:20:20;99612.59;;;9.29;57.38
69955;BME280;57279;55.912;37.490;2023-04-30T06:22:46;99619.94;;;9.34;55.91
69955;BME280;57279;55.912;37.490;2023-04-30T06:25:12;99621.88;;;9.38;55.34
69955;BME280;57279;55.912;37.490;2023-04-30T06:27:40;99621.06;;;9.38;54.79
69955;BME280;57279;55.912;37.490;2023-04-30T06:30:06;99610.88;;;9.40;54.33
69955;BME280;57279;55.912;37.490;2023-04-30T06:32:33;99609.72;;;9.53;54.83
69955;BME280;57279;55.912;37.490;2023-04-30T06:34:59;99618.94;;;9.57;54.04
69955;BME280;57279;55.912;37.490;2023-04-30T06:37:24;99612.97;;;9.55;53.37
69955;BME280;57279;55.912;37.490;2023-04-30T06:39:50;99620.25;;;9.54;52.96
69955;BME280;57279;55.912;37.490;2023-04-30T06:42:16;99621.97;;;9.61;52.15
69955;BME280;57279;55.912;37.490;2023-04-30T06:44:41;99612.41;;;9.70;52.29
69955;BME280;57279;55.912;37.490;2023-04-30T06:47:07;99607.81;;;9.70;52.56
69955;BME280;57279;55.912;37.490;2023-04-30T06:49:33;99605.94;;;9.71;52.31
69955;BME280;57279;55.912;37.490;2023-04-30T06:51:58;99601.28;;;9.66;51.77
69955;BME280;57279;55.912;37.490;2023-04-30T06:54:24;99603.75;;;9.68;51.55
69955;BME280;57279;55.912;37.490;2023-04-30T06:56:51;99597.53;;;9.67;51.38
69955;BME280;57279;55.912;37.490;2023-04-30T06:59:17;99585.56;;;9.80;51.43
69955;BME280;57279;55.912;37.490;2023-04-30T07:01:43;99586.69;;;9.84;50.90
69955;BME280;57279;55.912;37.490;2023-04-30T07:04:08;99585.75;;;9.95;50.70
69955;BME280;57279;55.912;37.490;2023-04-30T07:06:34;99582.66;;;10.04;49.88
69955;BME280;57279;55.912;37.490;2023-04-30T07:09:01;99571.72;;;10.15;50.16
69955;BME280;57279;55.912;37.490;2023-04-30T07:11:26;99578.69;;;10.33;48.80
69955;BME280;57279;55.912;37.490;2023-04-30T07:13:52;99573.75;;;10.47;47.49
69955;BME280;57279;55.912;37.490;2023-04-30T07:16:18;99566.53;;;10.58;47.16
69955;BME280;57279;55.912;37.490;2023-04-30T07:18:44;99565.19;;;10.55;45.71
69955;BME280;57279;55.912;37.490;2023-04-30T07:21:13;99557.94;;;10.61;45.75
69955;BME280;57279;55.912;37.490;2023-04-30T07:23:39;99557.06;;;10.83;45.09
69955;BME280;57279;55.912;37.490;2023-04-30T07:26:05;99553.31;;;10.84;44.35
69955;BME280;57279;55.912;37.490;2023-04-30T07:28:31;99560.44;;;11.00;44.75
69955;BME280;57279;55.912;37.490;2023-04-30T07:30:56;99548.84;;;11.00;44.10
69955;BME280;57279;55.912;37.490;2023-04-30T07:33:22;99539.13;;;11.04;43.21
69955;BME280;57279;55.912;37.490;2023-04-30T07:35:48;99549.63;;;10.95;43.74
69955;BME280;57279;55.912;37.490;2023-04-30T07:38:14;99542.09;;;11.02;42.98
69955;BME280;57279;55.912;37.490;2023-04-30T07:40:39;99546.56;;;10.86;41.17
69955;BME280;57279;55.912;37.490;2023-04-30T07:43:05;99547.91;;;10.89;42.24
69955;BME280;57279;55.912;37.490;2023-04-30T07:45:31;99536.84;;;10.85;41.71
69955;BME280;57279;55.912;37.490;2023-04-30T07:47:58;99536.00;;;10.85;41.71
69955;BME280;57279;55.912;37.490;2023-04-30T07:50:23;99520.66;;;10.90;42.55
69955;BME280;57279;55.912;37.490;2023-04-30T07:52:49;99519.59;;;10.91;41.42
69955;BME280;57279;55.912;37.490;2023-04-30T07:55:15;99512.53;;;10.85;39.65
69955;BME280;57279;55.912;37.490;2023-04-30T07:57:40;99509.72;;;10.75;39.16
69955;BME280;57279;55.912;37.490;2023-04-30T08:00:07;99499.72;;;10.75;40.20
69955;BME280;57279;55.912;37.490;2023-04-30T08:02:37;99502.44;;;10.75;40.54
69955;BME280;57279;55.912;37.490;2023-04-30T08:05:03;99500.69;;;10.91;40.74
69955;BME280;57279;55.912;37.490;2023-04-30T08:07:30;99489.09;;;10.96;40.16
69955;BME280;57279;55.912;37.490;2023-04-30T08:09:55;99488.66;;;11.09;40.35
69955;BME280;57279;55.912;37.490;2023-04-30T08:12:21;99478.94;;;11.13;39.74
69955;BME280;57279;55.912;37.490;2023-04-30T08:14:47;99468.72;;;11.21;39.42
69955;BME280;57279;55.912;37.490;2023-04-30T08:17:12;99472.84;;;11.33;40.25
69955;BME280;57279;55.912;37.490;2023-04-30T08:19:38;99468.84;;;11.41;40.16
69955;BME280;57279;55.912;37.490;2023-04-30T08:22:03;99463.41;;;11.36;40.02
69955;BME280;57279;55.912;37.490;2023-04-30T08:24:29;99461.56;;;11.47;40.73
69955;BME280;57279;55.912;37.490;2023-04-30T08:26:55;99446.09;;;11.32;40.07
69955;BME280;57279;55.912;37.490;2023-04-30T08:29:21;99445.53;;;11.30;40.11
69955;BME280;57279;55.912;37.490;2023-04-30T08:31:46;99436.44;;;11.46;39.46
69955;BME280;57279;55.912;37.490;2023-04-30T08:34:12;99433.78;;;11.62;39.51
69955;BME280;57279;55.912;37.490;2023-04-30T08:36:38;99430.22;;;11.51;39.57
69955;BME280;57279;55.912;37.490;2023-04-30T08:39:04;99420.63;;;11.23;39.44
69955;BME280;57279;55.912;37.490;2023-04-30T08:41:31;99423.94;;;11.40;39.97
69955;BME280;57279;55.912;37.490;2023-04-30T08:44:01;99415.81;;;11.30;39.20
69955;BME280;57279;55.912;37.490;2023-04-30T08:46:30;99417.94;;;11.23;39.31
69955;BME280;57279;55.912;37.490;2023-04-30T08:48:56;99416.06;;;11.23;40.32
69955;BME280;57279;55.912;37.490;2023-04-30T08:51:23;99412.81;;;11.26;39.25
69955;BME280;57279;55.912;37.490;2023-04-30T08:53:50;99405.84;;;11.35;40.12
69955;BME280;57279;55.912;37.490;2023-04-30T08:56:17;99411.56;;;11.44;40.43
69955;BME280;57279;55.912;37.490;2023-04-30T08:58:43;99400.81;;;11.60;40.29
69955;BME280;57279;55.912;37.490;2023-04-30T09:01:09;99407.78;;;11.50;40.08
69955;BME280;57279;55.912;37.490;2023-04-30T09:03:35;99393.22;;;11.67;40.01
69955;BME280;57279;55.912;37.490;2023-04-30T09:06:01;99385.66;;;11.64;39.49
69955;BME280;57279;55.912;37.490;2023-04-30T09:08:47;99385.63;;;11.59;40.21
69955;BME280;57279;55.912;37.490;2023-04-30T09:11:39;99384.84;;;11.63;40.15
69955;BME280;57279;55.912;37.490;2023-04-30T09:14:06;99384.06;;;11.73;40.34
69955;BME280;57279;55.912;37.490;2023-04-30T09:16:50;99375.63;;;11.59;40.02
69955;BME280;57279;55.912;37.490;2023-04-30T09:19:29;99368.88;;;11.57;40.25
69955;BME280;57279;55.912;37.490;2023-04-30T09:21:55;99359.69;;;11.63;40.13
69955;BME280;57279;55.912;37.490;2023-04-30T09:24:22;99351.31;;;11.64;39.55
69955;BME280;57279;55.912;37.490;2023-04-30T09:26:48;99345.88;;;11.59;40.59
69955;BME280;57279;55.912;37.490;2023-04-30T09:29:15;99350.25;;;11.76;41.05
69955;BME280;57279;55.912;37.490;2023-04-30T09:31:45;99338.91;;;11.79;40.88
69955;BME280;57279;55.912;37.490;2023-04-30T09:34:11;99336.22;;;11.79;40.94
69955;BME280;57279;55.912;37.490;2023-04-30T09:36:51;99332.94;;;11.66;40.86
69955;BME280;57279;55.912;37.490;2023-04-30T09:39:17;99329.97;;;11.73;40.61
69955;BME280;57279;55.912;37.490;2023-04-30T09:41:43;99328.06;;;11.63;41.00
69955;BME280;57279;55.912;37.490;2023-04-30T09:44:30;99318.59;;;11.61;41.05
69955;BME280;57279;55.912;37.490;2023-04-30T09:46:56;99318.03;;;11.59;41.28
69955;BME280;57279;55.912;37.490;2023-04-30T09:49:25;99313.69;;;11.47;41.09
69955;BME280;57279;55.912;37.490;2023-04-30T09:51:59;99305.34;;;11.54;41.72
69955;BME280;57279;55.912;37.490;2023-04-30T09:54:29;99299.09;;;11.53;40.98
69955;BME280;57279;55.912;37.490;2023-04-30T09:56:56;99303.44;;;11.70;41.08
69955;BME280;57279;55.912;37.490;2023-04-30T09:59:27;99300.22;;;11.73;40.82
69955;BME280;57279;55.912;37.490;2023-04-30T10:01:57;99297.78;;;11.82;40.86
69955;BME280;57279;55.912;37.490;2023-04-30T10:04:23;99298.59;;;11.87;40.25
69955;BME280;57279;55.912;37.490;2023-04-30T10:06:53;99289.94;;;11.85;40.68
69955;BME280;57279;55.912;37.490;2023-04-30T10:09:21;99283.72;;;11.80;40.92
69955;BME280;57279;55.912;37.490;2023-04-30T10:11:47;99289.94;;;11.75;40.62
69955;BME280;57279;55.912;37.490;2023-04-30T10:14:16;99290.47;;;11.62;40.37
69955;BME280;57279;55.912;37.490;2023-04-30T10:19:23;99289.94;;;11.70;40.60
69955;BME280;57279;55.912;37.490;2023-04-30T10:21:49;99279.09;;;11.65;40.43
69955;BME280;57279;55.912;37.490;2023-04-30T10:24:19;99280.47;;;11.62;40.15
69955;BME280;57279;55.912;37.490;2023-04-30T10:26:46;99286.69;;;11.73;40.21
69955;BME280;57279;55.912;37.490;2023-04-30T10:29:13;99282.09;;;11.63;40.18
69955;BME280;57279;55.912;37.490;2023-04-30T10:31:45;99283.97;;;11.63;40.54
69955;BME280;57279;55.912;37.490;2023-04-30T10:36:49;99289.63;;;11.61;40.89
69955;BME280;57279;55.912;37.490;2023-04-30T10:39:20;99281.53;;;11.66;40.78
69955;BME280;57279;55.912;37.490;2023-04-30T10:41:47;99290.22;;;11.79;41.57
69955;BME280;57279;55.912;37.490;2023-04-30T10:44:14;99294.28;;;11.71;40.44
69955;BME280;57279;55.912;37.490;2023-04-30T10:46:40;99299.66;;;11.61;40.73
69955;BME280;57279;55.912;37.490;2023-04-30T10:49:07;99299.38;;;11.72;40.68
69955;BME280;57279;55.912;37.490;2023-04-30T10:51:48;99300.22;;;11.68;40.72
69955;BME280;57279;55.912;37.490;2023-04-30T10:54:24;99297.50;;;11.68;41.16
69955;BME280;57279;55.912;37.490;2023-04-30T10:56:52;99291.00;;;11.74;40.71
69955;BME280;57279;55.912;37.490;2023-04-30T10:59:21;99283.69;;;11.74;41.02
69955;BME280;57279;55.912;37.490;2023-04-30T11:01:55;99283.47;;;11.71;40.87
69955;BME280;57279;55.912;37.490;2023-04-30T11:04:21;99282.63;;;11.70;41.36
69955;BME280;57279;55.912;37.490;2023-04-30T11:07:24;99278.56;;;11.52;40.53
69955;BME280;57279;55.912;37.490;2023-04-30T11:09:55;99285.31;;;11.55;41.09
69955;BME280;57279;55.912;37.490;2023-04-30T11:12:21;99283.41;;;11.50;40.76
69955;BME280;57279;55.912;37.490;2023-04-30T11:15:04;99286.66;;;11.52;40.93
69955;BME280;57279;55.912;37.490;2023-04-30T11:17:31;99292.34;;;11.66;40.87
69955;BME280;57279;55.912;37.490;2023-04-30T11:19:59;99293.47;;;11.81;41.13
69955;BME280;57279;55.912;37.490;2023-04-30T11:22:26;99293.50;;;11.96;41.32
69955;BME280;57279;55.912;37.490;2023-04-30T11:24:53;99286.72;;;11.93;40.90
69955;BME280;57279;55.912;37.490;2023-04-30T11:27:21;99277.78;;;12.08;40.95
69955;BME280;57279;55.912;37.490;2023-04-30T11:29:48;99278.59;;;12.19;40.99
69955;BME280;57279;55.912;37.490;2023-04-30T11:32:16;99278.31;;;12.31;39.97
69955;BME280;57279;55.912;37.490;2023-04-30T11:34:42;99276.38;;;12.47;40.32
69955;BME280;57279;55.912;37.490;2023-04-30T11:37:11;99263.63;;;12.58;40.03
69955;BME280;57279;55.912;37.490;2023-04-30T11:39:38;99250.09;;;12.63;40.08
69955;BME280;57279;55.912;37.490;2023-04-30T11:42:06;99250.09;;;12.63;39.72
69955;BME280;57279;55.912;37.490;2023-04-30T11:44:32;99243.31;;;12.60;40.04
69955;BME280;57279;55.912;37.490;2023-04-30T11:46:58;99232.78;;;12.54;39.72
69955;BME280;57279;55.912;37.490;2023-04-30T11:49:25;99219.81;;;12.40;39.37
69955;BME280;57279;55.912;37.490;2023-04-30T11:51:51;99211.97;;;12.33;39.78
69955;BME280;57279;55.912;37.490;2023-04-30T11:54:18;99209.00;;;12.35;39.74
69955;BME280;57279;55.912;37.490;2023-04-30T11:56:48;99207.34;;;12.39;39.45
69955;BME280;57279;55.912;37.490;2023-04-30T11:59:14;99209.56;;;12.22;39.70
69955;BME280;57279;55.912;37.490;2023-04-30T12:01:41;99203.34;;;12.26;40.09
69955;BME280;57279;55.912;37.490;2023-04-30T12:04:06;99197.13;;;12.21;39.71
69955;BME280;57279;55.912;37.490;2023-04-30T12:06:34;99197.16;;;12.10;39.92
69955;BME280;57279;55.912;37.490;2023-04-30T12:09:02;99197.94;;;12.21;40.02
69955;BME280;57279;55.912;37.490;2023-04-30T12:11:31;99198.47;;;12.23;40.09
69955;BME280;57279;55.912;37.490;2023-04-30T12:14:00;99190.88;;;12.25;39.53
69955;BME280;57279;55.912;37.490;2023-04-30T12:16:42;99193.31;;;12.32;40.83
69955;BME280;57279;55.912;37.490;2023-04-30T12:19:22;99186.47;;;12.55;40.01
69955;BME280;57279;55.912;37.490;2023-04-30T12:21:49;99194.56;;;12.60;40.44
69955;BME280;57279;55.912;37.490;2023-04-30T12:24:17;99192.44;;;12.52;40.06
69955;BME280;57279;55.912;37.490;2023-04-30T12:26:43;99190.81;;;12.51;39.46
69955;BME280;57279;55.912;37.490;2023-04-30T12:29:16;99188.59;;;12.63;39.80
69955;BME280;57279;55.912;37.490;2023-04-30T12:31:42;99184.81;;;12.59;39.83
69955;BME280;57279;55.912;37.490;2023-04-30T12:34:10;99187.53;;;12.64;39.09
69955;BME280;57279;55.912;37.490;2023-04-30T12:36:38;99182.09;;;12.64;39.25
69955;BME280;57279;55.912;37.490;2023-04-30T12:39:08;99182.69;;;12.51;39.53
69955;BME280;57279;55.912;37.490;2023-04-30T12:41:39;99178.09;;;12.51;39.65
69955;BME280;57279;55.912;37.490;2023-04-30T12:46:44;99186.53;;;12.40;40.46
69955;BME280;57279;55.912;37.490;2023-04-30T12:49:11;99190.88;;;12.25;40.30
69955;BME280;57279;55.912;37.490;2023-04-30T12:51:38;99192.00;;;12.24;40.47
69955;BME280;57279;55.912;37.490;2023-04-30T12:54:06;99190.09;;;12.25;40.45
69955;BME280;57279;55.912;37.490;2023-04-30T12:56:32;99194.97;;;12.18;40.43
69955;BME280;57279;55.912;37.490;2023-04-30T12:58:58;99180.63;;;12.12;40.82
69955;BME280;57279;55.912;37.490;2023-04-30T13:01:24;99176.63;;;11.94;40.83
69955;BME280;57279;55.912;37.490;2023-04-30T13:03:50;99183.38;;;11.97;41.10
69955;BME280;57279;55.912;37.490;2023-04-30T13:06:16;99173.34;;;12.02;41.27
69955;BME280;57279;55.912;37.490;2023-04-30T13:08:43;99173.34;;;11.97;41.64
69955;BME280;57279;55.912;37.490;2023-04-30T13:11:09;99170.38;;;11.78;42.15
69955;BME280;57279;55.912;37.490;2023-04-30T13:13:35;99161.19;;;11.79;42.47
69955;BME280;57279;55.912;37.490;2023-04-30T13:16:01;99159.84;;;11.71;42.32
69955;BME280;57279;55.912;37.490;2023-04-30T13:18:27;99162.03;;;11.69;42.94
69955;BME280;57279;55.912;37.490;2023-04-30T13:20:53;99155.53;;;11.60;43.27